Time;durP1;ratioP1;P1;durP2;ratioP2;P2;SDS_P1;SDS_P2;PMS_P1;PMS_P2;Temp;Humidity;BMP_temperature;BMP_pressure;BME280_temperature;BME280_humidity;BME280_pressure;Samples;Min_cycle;Max_cycle;Signal;HPM_P1;HPM_P2
2022/03/04 00:00:14;;;;;;;16.38;10.18;;;;;;;;;;5041851;28;20069;-64
2022/03/04 00:02:42;;;;;;;17.60;10.98;;;;;;;;;;5022567;28;20584;-64
2022/03/04 00:05:09;;;;;;;17.13;9.55;;;;;;;;;;5045297;28;20048;-62
2022/03/04 00:07:37;;;;;;;22.83;12.07;;;;;;;;;;5028609;28;20037;-63
2022/03/04 00:10:05;;;;;;;15.50;9.60;;;;;;;;;;5041780;28;20059;-62
2022/03/04 00:12:32;;;;;;;23.88;14.05;;;;;;;;;;5045750;28;20037;-63
2022/03/04 00:15:00;;;;;;;18.83;11.68;;;;;;;;;;5027760;28;20120;-64
2022/03/04 00:17:27;;;;;;;18.85;11.32;;;;;;;;;;5045938;28;20269;-62
2022/03/04 00:19:55;;;;;;;10.98;6.78;;;;;;;;;;5040929;28;20051;-62
2022/03/04 00:22:22;;;;;;;22.70;11.80;;;;;;;;;;5039123;28;20502;-62
2022/03/04 00:24:49;;;;;;;20.13;11.75;;;;;;;;;;5037514;28;20053;-62
2022/03/04 00:27:18;;;;;;;19.58;11.45;;;;;;;;;;5038487;28;20037;-62
2022/03/04 00:29:46;;;;;;;16.48;10.57;;;;;;;;;;5041028;28;20079;-62
2022/03/04 00:32:13;;;;;;;15.48;9.80;;;;;;;;;;5023924;28;20502;-63
2022/03/04 00:34:42;;;;;;;11.63;7.78;;;;;;;;;;5043051;28;20047;-61
2022/03/04 00:37:09;;;;;;;16.90;11.38;;;;;;;;;;5045599;28;20063;-62
2022/03/04 00:39:37;;;;;;;17.10;11.95;;;;;;;;;;5044975;28;20033;-62
2022/03/04 00:42:04;;;;;;;19.92;13.23;;;;;;;;;;5022190;28;20048;-63
2022/03/04 00:44:32;;;;;;;16.15;9.15;;;;;;;;;;5035374;28;20033;-62
2022/03/04 00:46:59;;;;;;;19.08;12.15;;;;;;;;;;5038733;28;20158;-62
2022/03/04 00:49:27;;;;;;;19.88;11.32;;;;;;;;;;5041996;28;20513;-61
2022/03/04 00:51:54;;;;;;;20.50;14.45;;;;;;;;;;5037594;28;20124;-61
2022/03/04 00:54:22;;;;;;;17.85;11.18;;;;;;;;;;5041596;28;20055;-62
2022/03/04 00:56:51;;;;;;;17.23;9.80;;;;;;;;;;5035957;28;20041;-62
2022/03/04 00:59:18;;;;;;;15.63;8.68;;;;;;;;;;5009161;28;20132;-62
2022/03/04 01:01:46;;;;;;;18.10;11.75;;;;;;;;;;5029003;28;20059;-61
2022/03/04 01:04:14;;;;;;;16.08;10.60;;;;;;;;;;5032574;28;20503;-62
2022/03/04 01:06:41;;;;;;;12.75;9.02;;;;;;;;;;5015722;28;20498;-64
2022/03/04 01:09:09;;;;;;;19.70;8.55;;;;;;;;;;5036364;28;20051;-62
2022/03/04 01:11:37;;;;;;;14.88;8.60;;;;;;;;;;5049114;28;20052;-62
2022/03/04 01:14:06;;;;;;;16.02;10.93;;;;;;;;;;5041474;28;20061;-63
2022/03/04 01:16:34;;;;;;;21.25;13.88;;;;;;;;;;5039589;28;20387;-63
2022/03/04 01:19:01;;;;;;;19.10;11.77;;;;;;;;;;5039870;28;20061;-64
2022/03/04 01:21:29;;;;;;;17.45;12.30;;;;;;;;;;5027708;28;20099;-64
2022/03/04 01:23:56;;;;;;;19.83;12.25;;;;;;;;;;5029737;28;20049;-63
2022/03/04 01:26:24;;;;;;;18.05;12.32;;;;;;;;;;5027784;28;20634;-64
2022/03/04 01:28:51;;;;;;;17.00;9.20;;;;;;;;;;5028284;28;20459;-64
2022/03/04 01:31:18;;;;;;;16.88;11.38;;;;;;;;;;5027414;28;20120;-63
2022/03/04 01:33:46;;;;;;;21.58;12.95;;;;;;;;;;5031458;28;20038;-62
2022/03/04 01:36:13;;;;;;;13.32;7.82;;;;;;;;;;5031096;28;20447;-64
2022/03/04 01:38:41;;;;;;;20.08;11.57;;;;;;;;;;5030323;28;20077;-62
2022/03/04 01:41:08;;;;;;;13.52;9.13;;;;;;;;;;5030500;28;20132;-64
2022/03/04 01:43:35;;;;;;;12.88;7.00;;;;;;;;;;5028271;28;20088;-62
2022/03/04 01:46:11;;;;;;;12.98;8.10;;;;;;;;;;5027865;28;20047;-61
2022/03/04 01:48:40;;;;;;;11.48;7.45;;;;;;;;;;5041853;28;20083;-62
2022/03/04 01:51:08;;;;;;;16.13;10.98;;;;;;;;;;5041978;28;20551;-62
2022/03/04 01:53:36;;;;;;;18.98;11.93;;;;;;;;;;5030332;28;20029;-62
2022/03/04 01:56:03;;;;;;;14.32;7.82;;;;;;;;;;5034023;28;20132;-62
2022/03/04 01:58:31;;;;;;;19.58;11.20;;;;;;;;;;5046905;28;20040;-63
2022/03/04 02:00:59;;;;;;;20.20;13.10;;;;;;;;;;5046893;28;20056;-63
2022/03/04 02:03:26;;;;;;;22.50;16.33;;;;;;;;;;5048265;28;20068;-62
2022/03/04 02:05:54;;;;;;;14.25;8.75;;;;;;;;;;5035883;28;20045;-61
2022/03/04 02:08:21;;;;;;;23.73;15.27;;;;;;;;;;5015881;28;20072;-63
2022/03/04 02:10:49;;;;;;;15.48;10.00;;;;;;;;;;5030473;28;20132;-62
2022/03/04 02:13:16;;;;;;;21.58;12.07;;;;;;;;;;5038208;28;20045;-61
2022/03/04 02:15:46;;;;;;;12.13;7.90;;;;;;;;;;5047226;28;20393;-62
2022/03/04 02:18:15;;;;;;;20.15;13.10;;;;;;;;;;5047384;28;20687;-62
2022/03/04 02:20:47;;;;;;;18.42;11.00;;;;;;;;;;5048593;28;20558;-62
2022/03/04 02:23:14;;;;;;;21.75;12.50;;;;;;;;;;5035903;28;20043;-63
2022/03/04 02:25:43;;;;;;;9.15;6.47;;;;;;;;;;5032919;28;20048;-63
2022/03/04 02:28:10;;;;;;;15.77;9.95;;;;;;;;;;5029220;28;20041;-63
2022/03/04 02:30:38;;;;;;;17.02;10.95;;;;;;;;;;5030207;28;20458;-63
2022/03/04 02:33:06;;;;;;;16.75;9.70;;;;;;;;;;5048281;28;20052;-62
2022/03/04 02:35:35;;;;;;;17.33;8.75;;;;;;;;;;5045953;28;20037;-63
2022/03/04 02:38:03;;;;;;;17.52;9.45;;;;;;;;;;5032338;28;20032;-63
2022/03/04 02:40:30;;;;;;;23.02;13.88;;;;;;;;;;5044297;28;20033;-62
2022/03/04 02:42:57;;;;;;;17.40;10.93;;;;;;;;;;5037332;28;20120;-63
2022/03/04 02:45:25;;;;;;;20.55;13.48;;;;;;;;;;5034663;28;20503;-63
2022/03/04 02:47:52;;;;;;;15.63;11.18;;;;;;;;;;5027816;28;20128;-62
2022/03/04 02:50:20;;;;;;;24.77;15.75;;;;;;;;;;5027588;28;20038;-62
2022/03/04 02:52:47;;;;;;;20.30;14.00;;;;;;;;;;5028392;28;20073;-62
2022/03/04 02:55:15;;;;;;;20.40;11.00;;;;;;;;;;5027946;28;20125;-61
2022/03/04 02:57:43;;;;;;;20.00;12.00;;;;;;;;;;5030663;28;20084;-64
2022/03/04 03:00:12;;;;;;;21.65;13.45;;;;;;;;;;5040129;28;20120;-64
2022/03/04 03:02:40;;;;;;;22.38;12.05;;;;;;;;;;5012625;28;20030;-63
2022/03/04 03:05:09;;;;;;;21.08;14.02;;;;;;;;;;5045519;28;20128;-63
2022/03/04 03:07:39;;;;;;;21.35;13.95;;;;;;;;;;5068893;22;20029;-66
2022/03/04 03:10:07;;;;;;;15.27;9.25;;;;;;;;;;5055248;28;20073;-66
2022/03/04 03:12:34;;;;;;;18.70;11.20;;;;;;;;;;5054897;28;20032;-66
2022/03/04 03:15:01;;;;;;;17.83;11.27;;;;;;;;;;5045989;28;20354;-67
2022/03/04 03:17:29;;;;;;;17.25;10.98;;;;;;;;;;5042410;28;20044;-67
2022/03/04 03:19:56;;;;;;;18.48;12.68;;;;;;;;;;5030225;28;20073;-66
2022/03/04 03:22:24;;;;;;;21.98;14.48;;;;;;;;;;5029544;28;20072;-67
2022/03/04 03:24:51;;;;;;;18.00;11.60;;;;;;;;;;5026774;28;20525;-66
2022/03/04 03:27:19;;;;;;;18.92;12.50;;;;;;;;;;5024428;28;20040;-66
2022/03/04 03:29:46;;;;;;;20.65;12.52;;;;;;;;;;5027338;28;20582;-66
2022/03/04 03:32:14;;;;;;;17.27;10.70;;;;;;;;;;5033834;28;20033;-66
2022/03/04 03:34:42;;;;;;;14.35;9.45;;;;;;;;;;5046405;28;20045;-67
2022/03/04 03:37:10;;;;;;;11.38;5.93;;;;;;;;;;5034304;28;20073;-66
2022/03/04 03:39:38;;;;;;;19.05;11.20;;;;;;;;;;5031575;28;20080;-66
2022/03/04 03:42:06;;;;;;;19.67;10.35;;;;;;;;;;5031169;28;20128;-66
2022/03/04 03:44:33;;;;;;;9.60;5.68;;;;;;;;;;5036021;28;20064;-66
2022/03/04 03:47:01;;;;;;;7.28;5.35;;;;;;;;;;5039475;28;20041;-66
2022/03/04 03:49:28;;;;;;;8.02;6.75;;;;;;;;;;5034885;28;20029;-66
2022/03/04 03:51:56;;;;;;;13.50;8.43;;;;;;;;;;5050466;28;20122;-67
2022/03/04 03:54:23;;;;;;;16.10;9.50;;;;;;;;;;5050214;28;20120;-66
2022/03/04 03:56:50;;;;;;;8.52;6.55;;;;;;;;;;5049788;28;20495;-66
2022/03/04 03:59:18;;;;;;;20.35;13.68;;;;;;;;;;5037158;28;20051;-66
2022/03/04 04:01:45;;;;;;;19.90;10.70;;;;;;;;;;5032652;28;20065;-66
2022/03/04 04:04:13;;;;;;;18.58;11.32;;;;;;;;;;5030081;28;20053;-66
2022/03/04 04:06:41;;;;;;;16.13;6.55;;;;;;;;;;5030623;28;20057;-67
2022/03/04 04:09:09;;;;;;;19.42;12.93;;;;;;;;;;5014557;28;20068;-67
2022/03/04 04:11:36;;;;;;;10.05;5.90;;;;;;;;;;5050159;28;20387;-66
2022/03/04 04:14:08;;;;;;;10.55;6.72;;;;;;;;;;5049893;28;20120;-66
2022/03/04 04:16:36;;;;;;;9.43;6.95;;;;;;;;;;5050517;28;20045;-66
2022/03/04 04:19:04;;;;;;;20.90;8.50;;;;;;;;;;5038807;28;20037;-66
2022/03/04 04:21:31;;;;;;;9.52;7.13;;;;;;;;;;5035167;28;20463;-67
2022/03/04 04:23:58;;;;;;;13.52;8.45;;;;;;;;;;5021140;28;20118;-66
2022/03/04 04:26:26;;;;;;;12.15;6.65;;;;;;;;;;5031772;28;20073;-66
2022/03/04 04:28:53;;;;;;;18.83;11.77;;;;;;;;;;5050055;28;20041;-66
2022/03/04 04:31:21;;;;;;;14.73;7.85;;;;;;;;;;5031282;28;20096;-66
2022/03/04 04:33:48;;;;;;;23.98;14.98;;;;;;;;;;5042658;28;20514;-67
2022/03/04 04:36:15;;;;;;;20.65;11.05;;;;;;;;;;5030781;28;20048;-66
2022/03/04 04:38:43;;;;;;;13.35;7.18;;;;;;;;;;5050029;28;20068;-66
2022/03/04 04:41:10;;;;;;;20.33;10.55;;;;;;;;;;5049237;28;20128;-66
2022/03/04 04:43:38;;;;;;;23.30;14.02;;;;;;;;;;5046061;28;20546;-66
2022/03/04 04:46:06;;;;;;;18.55;9.80;;;;;;;;;;5043764;28;20037;-66
2022/03/04 04:48:34;;;;;;;24.80;14.32;;;;;;;;;;5054341;28;20040;-66
2022/03/04 04:51:02;;;;;;;20.27;13.18;;;;;;;;;;5049632;28;20048;-66
2022/03/04 04:53:30;;;;;;;19.40;11.52;;;;;;;;;;5053596;28;20044;-66
2022/03/04 04:55:58;;;;;;;19.23;13.27;;;;;;;;;;5042443;28;20238;-66
2022/03/04 04:58:25;;;;;;;21.38;14.20;;;;;;;;;;5053507;28;20498;-66
2022/03/04 05:00:56;;;;;;;21.98;11.02;;;;;;;;;;5041586;28;20124;-65
2022/03/04 05:03:27;;;;;;;18.73;11.05;;;;;;;;;;5028947;28;20125;-65
2022/03/04 05:05:55;;;;;;;22.33;13.93;;;;;;;;;;5028522;28;20046;-64
2022/03/04 05:08:27;;;;;;;18.60;12.45;;;;;;;;;;5029143;28;20065;-65
2022/03/04 05:10:55;;;;;;;16.17;9.55;;;;;;;;;;5029640;28;20155;-65
2022/03/04 05:13:23;;;;;;;22.52;13.63;;;;;;;;;;5041733;28;20040;-65
2022/03/04 05:15:50;;;;;;;24.50;14.73;;;;;;;;;;5048143;28;20383;-65
2022/03/04 05:18:18;;;;;;;22.30;14.45;;;;;;;;;;5035756;28;20053;-65
2022/03/04 05:20:45;;;;;;;17.95;10.75;;;;;;;;;;5033010;28;20045;-65
2022/03/04 05:23:58;;;;;;;22.77;14.60;;;;;;;;;;5043265;28;20069;-65
2022/03/04 05:26:00;;;;;;;19.42;12.18;;;;;;;;;;5030568;28;20094;-66
2022/03/04 05:28:27;;;;;;;12.38;7.70;;;;;;;;;;5049306;28;20425;-66
2022/03/04 05:30:55;;;;;;;9.93;6.88;;;;;;;;;;5047403;28;20033;-65
2022/03/04 05:33:23;;;;;;;14.82;10.35;;;;;;;;;;5027654;28;20041;-64
2022/03/04 05:35:50;;;;;;;19.58;12.05;;;;;;;;;;5042574;28;20037;-66
2022/03/04 05:38:18;;;;;;;15.52;9.30;;;;;;;;;;5031515;28;20045;-65
2022/03/04 05:40:45;;;;;;;16.90;10.63;;;;;;;;;;5028313;28;20107;-65
2022/03/04 05:43:13;;;;;;;17.52;10.93;;;;;;;;;;5029513;28;20080;-66
2022/03/04 05:45:40;;;;;;;21.42;14.35;;;;;;;;;;5028570;28;20073;-66
2022/03/04 05:48:08;;;;;;;22.17;13.80;;;;;;;;;;5040132;28;20161;-65
2022/03/04 05:50:35;;;;;;;19.67;11.02;;;;;;;;;;5034921;28;20033;-66
2022/03/04 05:53:02;;;;;;;16.17;9.82;;;;;;;;;;5034492;28;20041;-67
2022/03/04 05:55:30;;;;;;;14.45;8.43;;;;;;;;;;5028861;28;20052;-66
2022/03/04 05:57:57;;;;;;;9.70;6.40;;;;;;;;;;5046759;28;20152;-66
2022/03/04 06:00:26;;;;;;;18.25;12.40;;;;;;;;;;5042257;28;20072;-66
2022/03/04 06:02:53;;;;;;;10.18;8.00;;;;;;;;;;5042543;28;20036;-66
2022/03/04 06:05:21;;;;;;;21.83;13.40;;;;;;;;;;5026486;28;20096;-66
2022/03/04 06:07:48;;;;;;;17.67;10.32;;;;;;;;;;5026113;28;20145;-66
2022/03/04 06:10:16;;;;;;;20.90;12.13;;;;;;;;;;5045954;28;20132;-66
2022/03/04 06:12:43;;;;;;;18.33;11.70;;;;;;;;;;5030859;28;20430;-65
2022/03/04 06:15:11;;;;;;;16.27;10.27;;;;;;;;;;5035655;28;20128;-65
2022/03/04 06:17:39;;;;;;;15.40;9.88;;;;;;;;;;5025065;28;20125;-66
2022/03/04 06:20:06;;;;;;;24.20;15.15;;;;;;;;;;5034020;28;20150;-66
2022/03/04 06:22:34;;;;;;;15.63;9.95;;;;;;;;;;5033529;28;20049;-66
2022/03/04 06:25:01;;;;;;;21.73;11.50;;;;;;;;;;5039451;28;20124;-66
2022/03/04 06:27:28;;;;;;;10.70;6.90;;;;;;;;;;5015301;28;21014;-66
2022/03/04 06:29:56;;;;;;;14.60;10.02;;;;;;;;;;5025621;28;20119;-66
2022/03/04 06:32:23;;;;;;;25.17;15.48;;;;;;;;;;5041471;28;20072;-66
2022/03/04 06:34:50;;;;;;;17.92;11.38;;;;;;;;;;5041285;28;20467;-66
2022/03/04 06:37:18;;;;;;;11.00;7.60;;;;;;;;;;5022994;28;20041;-67
2022/03/04 06:39:47;;;;;;;14.32;9.02;;;;;;;;;;5043533;28;20152;-66
2022/03/04 06:42:14;;;;;;;13.50;8.38;;;;;;;;;;5043408;28;20048;-67
2022/03/04 06:44:42;;;;;;;24.05;15.05;;;;;;;;;;5026865;28;20050;-67
2022/03/04 06:47:09;;;;;;;21.02;12.05;;;;;;;;;;5034639;28;20033;-67
2022/03/04 06:49:38;;;;;;;27.25;15.30;;;;;;;;;;5026712;28;20049;-67
2022/03/04 06:52:05;;;;;;;17.58;10.48;;;;;;;;;;5028032;28;20522;-67
2022/03/04 06:54:33;;;;;;;25.42;15.23;;;;;;;;;;5044580;28;20037;-67
2022/03/04 06:57:00;;;;;;;20.40;13.27;;;;;;;;;;5045504;28;20135;-65
2022/03/04 06:59:28;;;;;;;25.92;15.68;;;;;;;;;;5030233;28;20049;-65
2022/03/04 07:01:55;;;;;;;19.42;13.40;;;;;;;;;;5026891;28;20087;-65
2022/03/04 07:04:24;;;;;;;17.80;11.60;;;;;;;;;;5045568;28;20383;-65
2022/03/04 07:06:52;;;;;;;22.17;11.68;;;;;;;;;;5026211;28;20456;-65
2022/03/04 07:09:19;;;;;;;23.15;14.30;;;;;;;;;;5046542;28;20043;-65
2022/03/04 07:11:46;;;;;;;31.48;18.13;;;;;;;;;;5040763;28;20121;-66
2022/03/04 07:14:13;;;;;;;25.58;14.70;;;;;;;;;;5039453;28;20758;-66
2022/03/04 07:16:41;;;;;;;24.17;15.65;;;;;;;;;;5039568;28;20120;-67
2022/03/04 07:19:09;;;;;;;27.65;18.40;;;;;;;;;;5043758;28;20045;-65
2022/03/04 07:21:36;;;;;;;26.58;17.00;;;;;;;;;;5023090;28;20116;-65
2022/03/04 07:24:04;;;;;;;27.77;18.63;;;;;;;;;;5042720;28;20040;-66
2022/03/04 07:26:31;;;;;;;21.48;13.65;;;;;;;;;;5040293;28;20037;-66
2022/03/04 07:29:00;;;;;;;20.70;12.50;;;;;;;;;;5013267;28;20052;-66
2022/03/04 07:31:28;;;;;;;20.85;11.07;;;;;;;;;;5030148;28;20041;-65
2022/03/04 07:33:55;;;;;;;24.00;16.27;;;;;;;;;;5041105;28;20049;-66
2022/03/04 07:36:23;;;;;;;28.00;18.55;;;;;;;;;;5045061;28;20132;-65
2022/03/04 07:38:50;;;;;;;28.40;19.88;;;;;;;;;;5028930;28;20069;-66
2022/03/04 07:41:17;;;;;;;28.20;19.42;;;;;;;;;;5026967;28;20502;-66
2022/03/04 07:43:45;;;;;;;32.83;20.48;;;;;;;;;;5011117;28;20049;-66
2022/03/04 07:46:13;;;;;;;30.48;18.65;;;;;;;;;;5044929;28;20060;-67
2022/03/04 07:48:41;;;;;;;28.58;18.35;;;;;;;;;;5045754;28;20127;-67
2022/03/04 07:51:08;;;;;;;25.80;19.33;;;;;;;;;;5035397;28;20056;-65
2022/03/04 07:53:35;;;;;;;27.25;18.55;;;;;;;;;;5028272;28;20450;-66
2022/03/04 07:56:03;;;;;;;29.85;19.85;;;;;;;;;;5043662;28;20128;-66
2022/03/04 07:58:30;;;;;;;27.23;19.48;;;;;;;;;;5042939;28;20077;-66
2022/03/04 08:00:58;;;;;;;31.42;20.00;;;;;;;;;;5028812;28;20533;-66
2022/03/04 08:03:46;;;;;;;36.22;18.90;;;;;;;;;;5029191;28;20351;-65
2022/03/04 08:06:15;;;;;;;30.40;19.90;;;;;;;;;;5041013;28;20045;-66
2022/03/04 08:08:42;;;;;;;30.30;20.45;;;;;;;;;;5037782;28;20235;-66
2022/03/04 08:11:10;;;;;;;30.08;18.85;;;;;;;;;;5028215;28;20416;-67
2022/03/04 08:13:37;;;;;;;30.38;19.48;;;;;;;;;;5039831;28;20095;-67
2022/03/04 08:16:05;;;;;;;34.67;24.02;;;;;;;;;;5036297;28;20500;-69
2022/03/04 08:18:32;;;;;;;36.55;21.85;;;;;;;;;;5038572;28;20037;-68
2022/03/04 08:21:01;;;;;;;35.47;25.35;;;;;;;;;;5031077;28;20037;-67
2022/03/04 08:23:28;;;;;;;33.50;22.38;;;;;;;;;;5040144;28;20076;-67
2022/03/04 08:25:57;;;;;;;35.55;22.90;;;;;;;;;;5045619;28;20498;-67
2022/03/04 08:28:24;;;;;;;32.67;23.08;;;;;;;;;;5049267;28;20068;-64
2022/03/04 08:30:53;;;;;;;27.48;18.85;;;;;;;;;;5024898;28;20442;-66
2022/03/04 08:33:21;;;;;;;29.58;18.38;;;;;;;;;;5037423;28;20038;-66
2022/03/04 08:35:48;;;;;;;26.50;19.58;;;;;;;;;;5030028;28;20033;-66
2022/03/04 08:38:16;;;;;;;27.25;18.63;;;;;;;;;;5027319;28;20103;-66
2022/03/04 08:40:43;;;;;;;24.60;17.92;;;;;;;;;;5042038;28;20075;-66
2022/03/04 08:43:11;;;;;;;23.38;16.90;;;;;;;;;;5035065;28;20033;-67
2022/03/04 08:45:38;;;;;;;24.02;18.50;;;;;;;;;;5039374;28;20045;-67
2022/03/04 08:48:07;;;;;;;24.73;17.80;;;;;;;;;;5040570;28;20119;-67
2022/03/04 08:50:34;;;;;;;26.58;17.70;;;;;;;;;;5022825;28;20048;-67
2022/03/04 08:53:07;;;;;;;25.85;17.00;;;;;;;;;;5023657;28;20060;-67
2022/03/04 08:55:35;;;;;;;27.50;17.48;;;;;;;;;;5044307;28;20406;-67
2022/03/04 08:58:02;;;;;;;27.35;18.33;;;;;;;;;;5035184;28;20034;-67
2022/03/04 09:00:32;;;;;;;23.67;17.20;;;;;;;;;;5048758;28;20041;-67
2022/03/04 09:02:59;;;;;;;25.27;17.00;;;;;;;;;;5053189;28;20045;-67
2022/03/04 09:05:27;;;;;;;24.30;17.27;;;;;;;;;;5055524;28;20041;-68
2022/03/04 09:07:54;;;;;;;20.75;15.68;;;;;;;;;;5065502;22;20045;-72
2022/03/04 09:10:22;;;;;;;18.30;13.95;;;;;;;;;;5078737;28;20066;-71
2022/03/04 09:12:49;;;;;;;17.40;13.43;;;;;;;;;;5071641;28;20070;-71
2022/03/04 09:15:18;;;;;;;20.30;14.27;;;;;;;;;;5065831;28;20044;-72
2022/03/04 09:17:46;;;;;;;21.73;14.25;;;;;;;;;;5057553;28;20077;-72
2022/03/04 09:20:14;;;;;;;15.88;12.05;;;;;;;;;;5063320;28;20071;-72
2022/03/04 09:22:42;;;;;;;14.70;10.95;;;;;;;;;;5051537;28;20055;-72
2022/03/04 09:25:09;;;;;;;13.18;10.18;;;;;;;;;;5064446;28;20036;-72
2022/03/04 09:27:37;;;;;;;14.02;11.20;;;;;;;;;;5036269;28;20463;-72
2022/03/04 09:30:05;;;;;;;16.65;11.45;;;;;;;;;;5062615;28;20131;-72
2022/03/04 09:32:32;;;;;;;18.35;12.90;;;;;;;;;;5058633;28;20040;-71
2022/03/04 09:35:00;;;;;;;22.98;12.20;;;;;;;;;;5060980;28;20083;-72
2022/03/04 09:37:27;;;;;;;12.55;9.82;;;;;;;;;;5062540;28;20058;-72
2022/03/04 09:39:55;;;;;;;9.98;8.35;;;;;;;;;;5061071;28;20045;-71
2022/03/04 09:42:22;;;;;;;11.38;8.68;;;;;;;;;;5051569;28;20041;-72
2022/03/04 09:44:50;;;;;;;12.85;7.97;;;;;;;;;;5049346;28;20068;-72
2022/03/04 09:47:21;;;;;;;12.73;10.02;;;;;;;;;;5059555;28;20551;-72
2022/03/04 09:49:50;;;;;;;11.82;9.02;;;;;;;;;;5051348;28;20097;-72
2022/03/04 09:52:18;;;;;;;14.18;11.40;;;;;;;;;;5036388;28;20067;-71
2022/03/04 09:54:49;;;;;;;10.20;7.50;;;;;;;;;;5068278;28;20048;-71
2022/03/04 09:57:17;;;;;;;11.38;8.95;;;;;;;;;;5051570;28;20104;-71
2022/03/04 09:59:44;;;;;;;13.20;9.27;;;;;;;;;;5048261;28;20072;-71
2022/03/04 10:02:12;;;;;;;13.70;9.95;;;;;;;;;;5052427;28;20039;-74
2022/03/04 10:04:40;;;;;;;12.77;7.75;;;;;;;;;;5052048;28;20463;-74
2022/03/04 10:07:15;;;;;;;11.65;8.55;;;;;;;;;;5058846;28;20398;-77
2022/03/04 10:09:45;;;;;;;11.63;8.57;;;;;;;;;;5049344;28;20457;-70
2022/03/04 10:12:14;;;;;;;9.65;7.43;;;;;;;;;;5035843;28;20429;-71
2022/03/04 10:14:59;;;;;;;13.75;8.27;;;;;;;;;;5054771;28;20045;-70
2022/03/04 10:17:32;;;;;;;9.73;7.07;;;;;;;;;;5035849;28;20043;-70
2022/03/04 10:20:01;;;;;;;10.02;7.45;;;;;;;;;;5062882;28;20114;-70
2022/03/04 10:22:35;;;;;;;15.55;7.93;;;;;;;;;;5060359;28;20033;-70
2022/03/04 10:25:14;;;;;;;11.65;7.72;;;;;;;;;;5051778;28;20437;-70
2022/03/04 10:27:41;;;;;;;14.07;7.97;;;;;;;;;;5038768;28;20044;-70
2022/03/04 10:30:08;;;;;;;12.25;8.27;;;;;;;;;;5065194;28;20414;-71
2022/03/04 10:32:36;;;;;;;9.18;6.68;;;;;;;;;;5063259;28;20033;-71
2022/03/04 10:35:05;;;;;;;11.02;7.18;;;;;;;;;;5044474;28;20048;-71
2022/03/04 10:37:40;;;;;;;11.52;7.82;;;;;;;;;;5056346;28;20044;-71
2022/03/04 10:40:08;;;;;;;12.43;7.78;;;;;;;;;;5049534;28;20047;-71
2022/03/04 10:42:39;;;;;;;11.95;8.20;;;;;;;;;;5036572;28;20521;-71
2022/03/04 10:45:11;;;;;;;13.57;7.88;;;;;;;;;;5029223;28;20743;-70
2022/03/04 10:47:38;;;;;;;;;;;;;;;;;;5034799;28;20045;-70
2022/03/04 10:50:06;;;;;;;8.93;4.40;;;;;;;;;;5060912;28;19966;-71
2022/03/04 10:52:33;;;;;;;9.20;5.85;;;;;;;;;;5050760;28;20060;-70
2022/03/04 10:55:01;;;;;;;10.15;6.38;;;;;;;;;;5063622;28;20097;-70
2022/03/04 10:57:28;;;;;;;11.27;7.20;;;;;;;;;;5049986;28;20082;-71
2022/03/04 10:59:57;;;;;;;9.40;5.43;;;;;;;;;;5055084;28;20055;-71
2022/03/04 11:02:43;;;;;;;5.95;3.13;;;;;;;;;;5029323;28;20118;-70
2022/03/04 11:05:11;;;;;;;8.13;5.28;;;;;;;;;;5041983;28;20075;-70
2022/03/04 11:07:38;;;;;;;6.70;4.30;;;;;;;;;;5065916;28;20044;-71
2022/03/04 11:10:06;;;;;;;7.10;4.15;;;;;;;;;;5060068;28;20118;-71
2022/03/04 11:12:33;;;;;;;5.75;3.63;;;;;;;;;;5048021;28;20037;-71
2022/03/04 11:15:01;;;;;;;6.05;3.83;;;;;;;;;;5059660;28;20114;-71
2022/03/04 11:17:29;;;;;;;6.80;3.40;;;;;;;;;;5030395;28;20456;-71
2022/03/04 11:19:57;;;;;;;3.90;3.35;;;;;;;;;;5053386;28;20049;-71
2022/03/04 11:22:25;;;;;;;8.48;2.08;;;;;;;;;;5052213;28;20044;-71
2022/03/04 11:24:53;;;;;;;2.70;2.40;;;;;;;;;;5053207;28;20045;-71
2022/03/04 11:27:22;;;;;;;10.27;3.67;;;;;;;;;;5036246;28;20091;-71
2022/03/04 11:29:50;;;;;;;5.28;2.58;;;;;;;;;;5049753;28;20356;-71
2022/03/04 11:32:17;;;;;;;4.32;3.50;;;;;;;;;;5054834;28;20060;-71
2022/03/04 11:34:46;;;;;;;2.42;2.22;;;;;;;;;;5043662;28;20033;-71
2022/03/04 11:37:17;;;;;;;4.47;3.25;;;;;;;;;;5058151;28;20063;-71
2022/03/04 11:40:32;;;;;;;7.93;3.88;;;;;;;;;;5040301;28;20044;-71
2022/03/04 11:42:54;;;;;;;5.25;4.20;;;;;;;;;;5055082;28;20040;-71
2022/03/04 11:45:35;;;;;;;2.67;2.33;;;;;;;;;;5060607;28;20049;-71
2022/03/04 11:48:10;;;;;;;5.75;3.70;;;;;;;;;;5063325;28;20036;-71
2022/03/04 11:50:38;;;;;;;3.30;3.00;;;;;;;;;;5044597;28;20045;-70
2022/03/04 11:53:12;;;;;;;2.20;2.00;;;;;;;;;;5067687;28;20041;-71
2022/03/04 11:55:39;;;;;;;5.40;2.63;;;;;;;;;;5056741;28;20029;-70
2022/03/04 11:58:07;;;;;;;9.02;3.63;;;;;;;;;;5048541;28;20076;-70
2022/03/04 12:00:35;;;;;;;2.55;1.92;;;;;;;;;;5051111;28;20421;-70
2022/03/04 12:03:11;;;;;;;3.45;2.58;;;;;;;;;;5064817;28;20460;-70
2022/03/04 12:05:44;;;;;;;3.25;2.40;;;;;;;;;;5070558;28;20036;-71
2022/03/04 12:08:12;;;;;;;6.18;3.22;;;;;;;;;;5062886;28;20225;-70
2022/03/04 12:10:44;;;;;;;4.10;2.97;;;;;;;;;;5042458;28;20075;-70
2022/03/04 12:13:12;;;;;;;;;;;;;;;;;;5066785;28;20457;-71
2022/03/04 12:15:40;;;;;;;3.15;2.83;;;;;;;;;;5062222;28;19982;-71
2022/03/04 12:18:08;;;;;;;6.53;3.50;;;;;;;;;;5053500;28;20083;-70
2022/03/04 12:20:35;;;;;;;3.42;2.72;;;;;;;;;;5049374;28;20048;-70
2022/03/04 12:23:08;;;;;;;2.97;2.15;;;;;;;;;;5053923;28;20040;-70
2022/03/04 12:25:53;;;;;;;2.67;2.22;;;;;;;;;;5049301;28;20037;-70
2022/03/04 12:28:22;;;;;;;4.50;2.60;;;;;;;;;;5056697;28;20041;-70
2022/03/04 12:31:02;;;;;;;2.22;1.77;;;;;;;;;;5053613;28;20080;-71
2022/03/04 12:33:33;;;;;;;2.92;2.63;;;;;;;;;;5056279;28;20386;-70
2022/03/04 12:36:02;;;;;;;4.53;2.95;;;;;;;;;;5046609;28;20064;-70
2022/03/04 12:38:30;;;;;;;2.10;2.00;;;;;;;;;;5055690;28;20068;-71
2022/03/04 12:40:58;;;;;;;2.78;2.38;;;;;;;;;;5052925;28;20037;-71
2022/03/04 12:43:25;;;;;;;3.78;2.63;;;;;;;;;;5057238;28;21064;-70
2022/03/04 12:45:55;;;;;;;3.85;2.10;;;;;;;;;;5056378;28;20071;-70
2022/03/04 12:48:23;;;;;;;3.72;2.67;;;;;;;;;;5054628;28;20072;-70
2022/03/04 12:50:50;;;;;;;4.75;3.72;;;;;;;;;;5051736;28;20116;-70
2022/03/04 12:53:22;;;;;;;3.33;2.63;;;;;;;;;;5043729;28;20064;-70
2022/03/04 12:55:53;;;;;;;3.78;2.92;;;;;;;;;;5053004;28;20078;-70
2022/03/04 12:58:53;;;;;;;2.33;2.13;;;;;;;;;;5058103;28;20044;-70
2022/03/04 13:01:21;;;;;;;5.28;3.28;;;;;;;;;;5021881;28;20048;-70
2022/03/04 13:03:54;;;;;;;3.45;2.45;;;;;;;;;;5060361;28;20505;-70
2022/03/04 13:06:23;;;;;;;2.63;2.13;;;;;;;;;;5054709;28;20045;-70
2022/03/04 13:08:52;;;;;;;2.75;2.08;;;;;;;;;;5030393;28;20036;-70
2022/03/04 13:11:23;;;;;;;4.82;2.80;;;;;;;;;;5060084;28;20453;-70
2022/03/04 13:13:52;;;;;;;1.80;1.70;;;;;;;;;;5049488;28;20037;-70
2022/03/04 13:16:30;;;;;;;4.03;2.80;;;;;;;;;;5056357;28;20044;-70
2022/03/04 13:19:02;;;;;;;1.90;1.73;;;;;;;;;;5003795;28;20143;-70
2022/03/04 13:21:49;;;;;;;4.30;2.63;;;;;;;;;;5051986;28;20069;-70
2022/03/04 13:24:20;;;;;;;4.05;3.33;;;;;;;;;;5049851;28;20064;-70
2022/03/04 13:26:53;;;;;;;3.85;3.08;;;;;;;;;;5050830;28;20545;-70
2022/03/04 13:29:20;;;;;;;;;;;;;;;;;;5061903;28;20044;-70
2022/03/04 13:31:48;;;;;;;2.80;2.53;;;;;;;;;;5068085;28;20362;-70
2022/03/04 13:34:26;;;;;;;2.67;2.30;;;;;;;;;;5069572;28;20045;-70
2022/03/04 13:36:56;;;;;;;2.85;2.55;;;;;;;;;;5051456;28;20498;-70
2022/03/04 13:39:33;;;;;;;3.15;2.40;;;;;;;;;;5049995;28;20041;-70
2022/03/04 13:42:10;;;;;;;2.53;2.33;;;;;;;;;;5052657;28;20084;-70
2022/03/04 13:44:56;;;;;;;2.88;2.67;;;;;;;;;;5051859;28;20110;-70
2022/03/04 13:47:33;;;;;;;4.15;3.17;;;;;;;;;;5050988;28;20129;-70
2022/03/04 13:50:02;;;;;;;2.88;2.53;;;;;;;;;;5052053;28;20045;-70
2022/03/04 13:52:29;;;;;;;5.20;2.78;;;;;;;;;;5053293;28;20068;-70
2022/03/04 13:55:00;;;;;;;3.75;2.78;;;;;;;;;;5056860;28;20065;-70
2022/03/04 13:57:31;;;;;;;2.55;2.33;;;;;;;;;;5034973;28;20045;-70
2022/03/04 14:00:05;;;;;;;2.58;2.08;;;;;;;;;;5050807;28;20582;-70
2022/03/04 14:02:38;;;;;;;3.88;2.83;;;;;;;;;;5061234;28;20040;-70
2022/03/04 14:05:06;;;;;;;4.03;2.67;;;;;;;;;;5068412;28;20049;-70
2022/03/04 14:07:47;;;;;;;2.65;2.30;;;;;;;;;;5068224;28;20044;-70
2022/03/04 14:10:17;;;;;;;3.60;1.95;;;;;;;;;;5069352;28;20072;-70
2022/03/04 14:12:45;;;;;;;3.10;2.05;;;;;;;;;;5068988;28;20041;-70
2022/03/04 14:15:13;;;;;;;4.45;3.38;;;;;;;;;;5062334;28;20486;-70
2022/03/04 14:17:48;;;;;;;2.60;2.30;;;;;;;;;;5060309;28;20037;-70
2022/03/04 14:20:15;;;;;;;3.55;3.00;;;;;;;;;;5068611;28;20099;-70
2022/03/04 14:22:43;;;;;;;2.90;2.13;;;;;;;;;;5067999;28;20048;-70
2022/03/04 14:25:10;;;;;;;4.60;3.70;;;;;;;;;;5067990;28;20044;-70
2022/03/04 14:27:42;;;;;;;2.13;1.92;;;;;;;;;;5069617;28;20491;-70
2022/03/04 14:30:11;;;;;;;3.17;1.88;;;;;;;;;;5049664;28;20032;-70
2022/03/04 14:32:38;;;;;;;2.45;2.00;;;;;;;;;;5059332;28;20047;-70
2022/03/04 14:35:07;;;;;;;3.65;1.65;;;;;;;;;;5059730;28;20540;-70
2022/03/04 14:37:35;;;;;;;3.33;1.73;;;;;;;;;;5050858;28;20051;-70